Time;durP1;ratioP1;P1;durP2;ratioP2;P2;SDS_P1;SDS_P2;PMS_P1;PMS_P2;Temp;Humidity;BMP_temperature;BMP_pressure;BME280_temperature;BME280_humidity;BME280_pressure;Samples;Min_cycle;Max_cycle;Signal;HPM_P1;HPM_P2
2022/06/11 00:00:05;;;;;;;;;2.00;2.00;;;;;19.83;61.79;101357.72;5018400;28;45497;-81
2022/06/11 00:02:30;;;;;;;;;3.00;2.00;;;;;19.81;62.11;101352.41;5017813;28;45364;-82
2022/06/11 00:04:56;;;;;;;;;3.00;3.00;;;;;19.79;62.06;101354.31;4996954;28;45446;-81
2022/06/11 00:07:23;;;;;;;;;3.00;3.00;;;;;19.76;62.33;101359.78;5004639;28;45479;-81
2022/06/11 00:09:50;;;;;;;;;2.00;2.00;;;;;19.73;62.61;101351.88;5014616;28;46798;-80
2022/06/11 00:12:16;;;;;;;;;1.00;1.00;;;;;19.71;62.22;101351.97;5032647;28;45485;-81
2022/06/11 00:14:43;;;;;;;;;2.75;1.75;;;;;19.66;62.43;101351.31;5019564;28;45395;-81
2022/06/11 00:17:12;;;;;;;;;4.00;2.50;;;;;19.68;62.49;101357.47;5022360;28;45343;-81
2022/06/11 00:19:38;;;;;;;;;4.75;3.00;;;;;19.64;62.60;101346.94;5018799;28;46057;-80
2022/06/11 00:22:04;;;;;;;;;3.25;3.25;;;;;19.57;62.74;101346.38;5009591;28;45514;-81
2022/06/11 00:24:30;;;;;;;;;3.00;3.00;;;;;19.56;62.60;101347.31;4995833;28;45394;-81
2022/06/11 00:26:58;;;;;;;;;4.00;4.00;;;;;19.55;63.05;101345.56;4998002;28;45403;-81
2022/06/11 00:29:28;;;;;;;;;3.75;3.00;;;;;19.56;62.88;101341.94;5015334;28;46239;-81
2022/06/11 00:31:54;;;;;;;;;3.75;2.00;;;;;19.50;62.98;101345.75;5011006;28;45470;-81
2022/06/11 00:34:20;;;;;;;;;4.75;4.75;;;;;19.53;62.87;101347.44;4995230;28;45531;-81
2022/06/11 00:36:46;;;;;;;;;3.50;3.00;;;;;19.55;63.00;101350.06;4995760;28;45455;-80
2022/06/11 00:39:14;;;;;;;;;2.75;2.75;;;;;19.48;63.07;101344.06;4996025;28;46862;-81
2022/06/11 00:41:44;;;;;;;;;3.50;3.50;;;;;19.49;63.31;101351.19;4996862;28;45467;-80
2022/06/11 00:44:10;;;;;;;;;5.75;5.00;;;;;19.43;63.28;101346.13;5013558;28;45525;-80
2022/06/11 00:46:48;;;;;;;;;4.25;4.25;;;;;19.46;63.49;101351.34;5032047;28;45487;-81
2022/06/11 00:49:22;;;;;;;;;6.25;4.25;;;;;19.44;63.55;101350.53;5011865;28;46149;-81
2022/06/11 00:51:53;;;;;;;;;2.75;2.75;;;;;19.40;63.70;101347.09;4995750;28;45483;-80
2022/06/11 00:54:24;;;;;;;;;2.25;2.25;;;;;19.38;63.64;101350.81;5003331;28;45486;-80
2022/06/11 00:56:54;;;;;;;;;3.00;3.00;;;;;19.35;64.04;101352.69;5015790;28;46129;-80
2022/06/11 00:59:27;;;;;;;;;3.75;3.25;;;;;19.29;63.96;101352.94;5014910;28;46682;-80
2022/06/11 01:01:53;;;;;;;;;2.75;1.50;;;;;19.26;64.17;101346.88;5016233;28;45401;-80
2022/06/11 01:04:54;;;;;;;;;3.75;3.75;;;;;19.25;64.46;101348.69;5014525;28;45717;-81
2022/06/11 01:07:41;;;;;;;;;2.00;2.00;;;;;19.23;64.50;101347.88;4998620;28;45381;-80
2022/06/11 01:10:29;;;;;;;;;3.00;2.50;;;;;19.20;64.31;101363.22;5018806;28;45985;-80
2022/06/11 01:13:35;;;;;;;;;6.00;3.00;;;;;19.19;64.80;101359.66;5002213;28;45371;-81
2022/06/11 01:16:14;;;;;;;;;2.75;2.75;;;;;19.13;64.75;101349.19;4999141;28;45380;-79
2022/06/11 01:19:10;;;;;;;;;5.00;3.00;;;;;19.12;64.73;101348.34;4994056;28;45677;-81
2022/06/11 01:21:35;;;;;;;;;3.00;3.00;;;;;19.11;64.75;101351.09;4976408;28;45469;-80
2022/06/11 01:24:23;;;;;;;;;3.00;3.00;;;;;19.10;64.75;101349.34;4976186;28;45499;-80
2022/06/11 01:27:04;;;;;;;;;3.00;3.00;;;;;19.10;64.88;101350.22;4996987;28;45429;-81
2022/06/11 01:29:39;;;;;;;;;5.00;2.00;;;;;19.07;64.98;101350.34;4989833;28;45783;-81
2022/06/11 01:32:14;;;;;;;;;2.50;2.50;;;;;19.04;65.12;101344.25;4975949;28;45443;-80
2022/06/11 01:34:45;;;;;;;;;4.25;4.25;;;;;19.03;65.39;101350.56;4977003;28;45483;-80
2022/06/11 01:37:43;;;;;;;;;2.00;2.00;;;;;19.00;65.33;101347.06;4974962;28;45533;-80
2022/06/11 01:40:53;;;;;;;;;3.00;3.00;;;;;18.97;65.09;101352.53;4998290;28;45309;-81
2022/06/11 01:43:41;;;;;;;;;3.00;3.00;;;;;18.94;65.45;101350.00;5001747;28;45501;-80
2022/06/11 01:46:17;;;;;;;;;2.75;2.75;;;;;18.93;65.41;101350.97;5007307;28;45511;-80
2022/06/11 01:49:13;;;;;;;;;3.00;2.25;;;;;18.91;65.49;101351.94;5017377;28;45811;-81
2022/06/11 01:52:06;;;;;;;;;2.75;2.00;;;;;18.89;65.55;101349.34;5019786;28;45524;-81
2022/06/11 01:54:56;;;;;;;;;3.00;3.00;;;;;18.87;65.52;101353.88;5038107;28;46309;-81
2022/06/11 01:57:40;;;;;;;;;3.75;3.75;;;;;18.85;65.64;101355.75;5003576;28;45487;-80
2022/06/11 02:00:23;;;;;;;;;5.00;2.25;;;;;18.81;66.01;101348.75;4998947;28;45422;-81
2022/06/11 02:03:06;;;;;;;;;4.25;2.00;;;;;18.79;65.94;101354.16;4999645;28;45479;-81
2022/06/11 02:05:54;;;;;;;;;4.00;2.75;;;;;18.78;66.03;101351.56;5017673;28;46380;-80
2022/06/11 02:08:38;;;;;;;;;2.00;2.00;;;;;18.80;65.81;101357.72;5001408;28;45328;-80
2022/06/11 02:11:18;;;;;;;;;2.25;2.25;;;;;18.79;65.87;101358.66;5002643;28;45423;-79
2022/06/11 02:13:52;;;;;;;;;5.00;3.00;;;;;18.78;66.28;101362.25;5003532;28;45402;-81
2022/06/11 02:17:07;;;;;;;;;2.75;2.75;;;;;18.75;66.40;101360.59;5009441;28;46106;-79
2022/06/11 02:19:41;;;;;;;;;4.75;2.50;;;;;18.74;66.11;101358.84;5022660;28;45484;-81
2022/06/11 02:22:14;;;;;;;;;2.00;2.00;;;;;18.71;66.23;101364.34;5018787;28;45460;-80
2022/06/11 02:24:53;;;;;;;;;2.00;2.00;;;;;18.66;66.59;101350.28;5017710;28;45549;-80
2022/06/11 02:27:23;;;;;;;;;4.00;4.00;;;;;18.65;66.71;101359.25;5016236;28;45422;-80
2022/06/11 02:29:52;;;;;;;;;5.25;3.50;;;;;18.64;66.77;101360.16;5017973;28;45451;-79
2022/06/11 02:32:21;;;;;;;;;3.50;3.00;;;;;18.60;66.69;101353.22;5015738;28;45458;-81
2022/06/11 02:34:55;;;;;;;;;6.00;3.00;;;;;18.58;66.45;101358.59;5005918;28;45555;-81
2022/06/11 02:37:32;;;;;;;;;3.75;2.50;;;;;18.58;66.76;101360.41;4999724;28;45615;-81
2022/06/11 02:40:03;;;;;;;;;4.50;4.50;;;;;18.54;66.76;101366.81;5000057;28;45436;-80
2022/06/11 02:42:29;;;;;;;;;5.00;3.00;;;;;18.50;66.84;101363.41;5003379;28;45377;-81
2022/06/11 02:44:55;;;;;;;;;3.00;3.00;;;;;18.51;67.07;101370.53;4999094;28;45540;-80
2022/06/11 02:47:22;;;;;;;;;3.00;3.00;;;;;18.49;66.86;101369.69;4997370;28;45320;-81
2022/06/11 02:49:48;;;;;;;;;2.00;2.00;;;;;18.46;67.13;101362.69;5022936;28;45940;-81
2022/06/11 02:52:18;;;;;;;;;7.50;6.00;;;;;18.46;67.11;101369.81;5002589;28;45455;-81
2022/06/11 02:54:44;;;;;;;;;3.00;3.00;;;;;18.44;67.20;101366.34;5018286;28;45514;-81
2022/06/11 02:57:16;;;;;;;;;5.00;5.00;;;;;18.45;67.35;101373.44;5016502;28;46548;-80
2022/06/11 02:59:44;;;;;;;;;5.25;3.00;;;;;18.46;67.18;101369.81;5029979;28;45518;-80
2022/06/11 03:02:09;;;;;;;;;4.75;4.75;;;;;18.46;67.01;101375.16;5036840;28;45446;-80
2022/06/11 03:04:36;;;;;;;;;2.00;2.00;;;;;18.44;67.49;101374.38;5038273;28;45509;-80
2022/06/11 03:07:03;;;;;;;;;4.75;4.00;;;;;18.43;67.22;101376.19;5042385;28;45562;-81
2022/06/11 03:09:31;;;;;;;;;4.00;4.00;;;;;18.44;67.10;101377.03;5022792;28;44839;-81
2022/06/11 03:11:58;;;;;;;;;5.00;5.00;;;;;18.42;67.05;101376.25;5026859;28;45280;-81
2022/06/11 03:14:24;;;;;;;;;2.75;2.75;;;;;18.43;67.33;101372.63;5022040;28;45462;-81
2022/06/11 03:16:50;;;;;;;;;2.00;2.00;;;;;18.42;67.42;101382.47;5021586;28;46648;-80
2022/06/11 03:19:20;;;;;;;;;2.00;2.00;;;;;18.40;67.42;101378.09;5011130;28;45502;-80
2022/06/11 03:21:47;;;;;;;;;4.50;2.00;;;;;18.40;67.39;101375.41;5015391;28;45388;-80
2022/06/11 03:24:12;;;;;;;;;2.50;2.50;;;;;18.40;67.59;101378.09;4999033;28;45396;-82
2022/06/11 03:26:38;;;;;;;;;3.00;3.00;;;;;18.28;67.46;101372.31;5035792;28;45629;-82
2022/06/11 03:29:04;;;;;;;;;2.25;2.25;;;;;18.36;67.60;101389.88;5017623;28;45373;-81
2022/06/11 03:31:29;;;;;;;;;6.25;5.00;;;;;18.34;67.67;101391.72;5016709;28;45458;-80
2022/06/11 03:33:55;;;;;;;;;10.00;4.50;;;;;18.32;68.01;101391.78;5016861;28;45392;-80
2022/06/11 03:36:20;;;;;;;;;3.00;2.00;;;;;18.31;67.54;101395.41;5006950;28;46378;-80
2022/06/11 03:38:47;;;;;;;;;2.00;2.00;;;;;18.33;67.52;101388.19;5013380;28;45288;-81
2022/06/11 03:41:14;;;;;;;;;4.75;2.00;;;;;18.32;68.07;101396.28;5022522;28;45327;-80
2022/06/11 03:43:40;;;;;;;;;3.00;3.00;;;;;18.32;67.52;101401.63;5016523;28;45340;-81
2022/06/11 03:46:06;;;;;;;;;2.50;2.50;;;;;18.31;67.67;101403.44;5015390;28;46843;-81
2022/06/11 03:48:34;;;;;;;;;2.75;2.75;;;;;18.31;67.69;101407.91;5030885;28;45485;-82
2022/06/11 03:51:00;;;;;;;;;1.75;1.75;;;;;18.27;68.04;101400.00;5036450;28;45411;-81
2022/06/11 03:53:28;;;;;;;;;2.00;2.00;;;;;18.32;68.03;101415.00;5012728;28;45572;-80
2022/06/11 03:55:54;;;;;;;;;0.50;0.50;;;;;18.29;68.50;101411.53;4993854;28;46092;-81
2022/06/11 03:58:20;;;;;;;;;2.50;2.00;;;;;18.34;68.26;101418.47;5008418;28;45443;-81
2022/06/11 04:03:32;;;;;;;;;3.00;3.00;;;;;18.34;68.18;101430.06;5016388;28;45479;-81
2022/06/11 04:05:58;;;;;;;;;4.00;2.75;;;;;18.31;68.32;101423.94;5020051;28;45481;-80
2022/06/11 04:08:25;;;;;;;;;2.75;2.25;;;;;18.35;68.12;101425.59;5010550;28;45443;-81
2022/06/11 04:10:53;;;;;;;;;6.75;5.75;;;;;18.40;68.17;101437.84;5013572;28;45435;-81
2022/06/11 04:13:21;;;;;;;;;5.25;3.50;;;;;18.44;67.95;101438.59;5016046;28;45541;-81
2022/06/11 04:15:46;;;;;;;;;4.50;4.50;;;;;18.51;67.68;101432.06;5032908;28;47208;-80
2022/06/11 04:18:32;;;;;;;;;4.00;4.00;;;;;18.82;67.05;101446.91;5023250;28;45498;-81
2022/06/11 04:20:59;;;;;;;;;4.25;4.25;;;;;19.29;65.96;101441.38;5018259;28;45404;-80
2022/06/11 04:23:29;;;;;;;;;4.50;4.50;;;;;19.71;64.37;101437.78;5017054;28;45396;-81
2022/06/11 04:25:58;;;;;;;;;5.00;3.00;;;;;20.20;63.02;101444.56;5016970;28;46262;-80
2022/06/11 04:28:25;;;;;;;;;6.00;6.00;;;;;20.66;61.87;101441.50;5002822;28;45566;-79
2022/06/11 04:30:51;;;;;;;;;5.50;3.75;;;;;21.04;60.52;101430.69;4994874;28;45305;-80
2022/06/11 04:33:16;;;;;;;;;3.75;3.75;;;;;21.47;59.18;101448.16;4995855;28;45487;-81
2022/06/11 04:35:41;;;;;;;;;3.25;3.25;;;;;21.85;58.13;101443.56;4999255;28;45353;-81
2022/06/11 04:38:07;;;;;;;;;4.00;4.00;;;;;22.23;57.17;101448.66;5012749;28;45374;-81
2022/06/11 04:40:32;;;;;;;;;3.00;3.00;;;;;22.64;55.76;101445.53;5022208;28;45415;-80
2022/06/11 04:42:58;;;;;;;;;7.00;3.75;;;;;23.02;54.59;101448.69;5030691;28;45355;-80
2022/06/11 04:45:24;;;;;;;;;4.25;3.00;;;;;23.40;53.75;101460.88;5037862;28;45405;-80
2022/06/11 04:47:50;;;;;;;;;3.50;3.50;;;;;23.81;52.06;101457.47;5038770;28;45417;-81
2022/06/11 04:50:17;;;;;;;;;7.25;3.75;;;;;24.23;51.23;101461.19;5020838;28;45332;-80
2022/06/11 04:52:42;;;;;;;;;3.75;3.75;;;;;24.57;50.77;101450.88;4997878;28;45372;-80
2022/06/11 04:55:09;;;;;;;;;4.00;4.00;;;;;24.88;50.15;101446.16;4997931;28;45406;-81
2022/06/11 04:57:35;;;;;;;;;3.00;3.00;;;;;25.18;49.07;101456.75;4997669;28;45426;-81
2022/06/11 05:00:02;;;;;;;;;3.50;3.50;;;;;25.54;48.54;101444.41;4999099;28;45440;-80
2022/06/11 05:02:27;;;;;;;;;2.75;2.50;;;;;25.88;47.45;101444.72;5031040;28;45566;-81
2022/06/11 05:04:52;;;;;;;;;5.25;5.25;;;;;26.12;46.76;101444.00;5040272;28;64518;-81
2022/06/11 05:07:19;;;;;;;;;4.50;4.50;;;;;26.46;46.14;101448.78;5042920;28;45406;-81
2022/06/11 05:09:45;;;;;;;;;4.50;3.75;;;;;26.83;45.32;101451.50;5033419;28;45399;-81
2022/06/11 05:12:12;;;;;;;;;3.00;3.00;;;;;27.23;44.40;101453.91;5020272;28;45411;-80
2022/06/11 05:14:38;;;;;;;;;3.00;3.00;;;;;27.36;44.15;101449.31;5018568;28;46249;-80
2022/06/11 05:17:03;;;;;;;;;3.75;3.75;;;;;27.64;43.25;101452.56;5020419;28;45490;-81
2022/06/11 05:19:29;;;;;;;;;5.00;5.00;;;;;27.90;42.96;101444.19;5019098;28;45489;-80
2022/06/11 05:21:55;;;;;;;;;3.50;3.50;;;;;28.20;42.27;101443.63;5017192;28;45494;-80
2022/06/11 05:24:21;;;;;;;;;4.75;4.00;;;;;28.56;40.94;101448.84;5018269;28;46250;-81
2022/06/11 05:26:52;;;;;;;;;4.00;4.00;;;;;28.79;40.94;101447.84;5017745;28;45467;-80
2022/06/11 05:29:26;;;;;;;;;2.00;2.00;;;;;29.32;40.68;101443.44;5016744;28;45346;-80
2022/06/11 05:31:52;;;;;;;;;3.00;3.00;;;;;29.70;39.01;101433.78;5003782;28;45459;-82
2022/06/11 05:34:18;;;;;;;;;6.75;4.00;;;;;30.13;39.04;101438.19;5018854;28;45446;-82
2022/06/11 05:36:43;;;;;;;;;4.00;4.00;;;;;30.51;37.50;101443.94;5022029;28;45430;-81
2022/06/11 05:39:08;;;;;;;;;6.00;5.00;;;;;30.58;37.20;101443.22;5021515;28;45496;-82
2022/06/11 05:41:34;;;;;;;;;5.25;4.50;;;;;30.63;37.50;101438.19;5016254;28;45694;-82
2022/06/11 05:43:59;;;;;;;;;4.50;4.00;;;;;30.84;37.18;101437.22;5017728;28;45375;-83
2022/06/11 05:46:26;;;;;;;;;6.00;4.50;;;;;31.27;36.26;101446.00;5022641;28;45402;-81
2022/06/11 05:49:00;;;;;;;;;4.25;4.25;;;;;31.58;35.80;101443.09;5017224;28;45428;-82
2022/06/11 05:51:33;;;;;;;;;6.00;6.00;;;;;31.64;35.37;101442.50;5014018;28;45434;-81
2022/06/11 05:54:01;;;;;;;;;4.25;4.25;;;;;31.61;35.09;101448.25;4997938;28;46975;-82
2022/06/11 05:56:28;;;;;;;;;4.25;4.00;;;;;31.76;35.53;101445.94;4998138;28;45345;-81
2022/06/11 05:59:01;;;;;;;;;4.50;4.00;;;;;32.08;34.72;101436.44;4997735;28;45344;-82
2022/06/11 06:01:35;;;;;;;;;4.75;4.75;;;;;32.49;33.94;101445.19;4999104;28;45674;-82
2022/06/11 06:04:00;;;;;;;;;8.75;6.75;;;;;32.47;34.22;101436.28;4999213;28;45529;-80
2022/06/11 06:06:26;;;;;;;;;5.00;5.00;;;;;32.76;33.82;101445.16;5001006;28;45526;-80
2022/06/11 06:08:52;;;;;;;;;5.25;4.25;;;;;32.92;33.15;101443.63;5003862;28;45412;-81
2022/06/11 06:11:18;;;;;;;;;4.50;4.50;;;;;32.70;33.13;101443.03;5003988;28;45458;-81
2022/06/11 06:13:46;;;;;;;;;4.00;4.00;;;;;32.86;33.16;101452.47;5016292;28;46184;-80
2022/06/11 06:16:19;;;;;;;;;5.50;3.25;;;;;33.07;33.67;101452.13;5016817;28;45429;-80
2022/06/11 06:18:45;;;;;;;;;4.00;4.00;;;;;33.37;32.71;101450.84;5017789;28;45446;-80
2022/06/11 06:21:11;;;;;;;;;4.00;4.00;;;;;33.43;32.47;101450.22;5016746;28;45594;-80
2022/06/11 06:23:36;;;;;;;;;7.50;6.50;;;;;33.29;32.69;101457.13;5016933;28;46284;-82
2022/06/11 06:26:02;;;;;;;;;4.75;4.50;;;;;33.58;32.42;101449.66;5016492;28;45419;-80
2022/06/11 06:28:28;;;;;;;;;4.50;4.50;;;;;33.43;31.97;101447.47;5017019;28;45426;-79
2022/06/11 06:30:53;;;;;;;;;7.50;7.00;;;;;33.51;32.36;101454.03;5005527;28;45552;-81
2022/06/11 06:33:19;;;;;;;;;3.25;3.00;;;;;33.56;31.56;101446.22;5016615;28;45448;-82
2022/06/11 06:35:44;;;;;;;;;3.75;3.75;;;;;33.64;31.74;101447.09;5042354;28;45484;-82
2022/06/11 06:38:09;;;;;;;;;4.50;4.25;;;;;33.84;31.77;101449.66;5029274;28;45379;-80
2022/06/11 06:40:35;;;;;;;;;5.75;5.75;;;;;33.94;31.37;101446.81;5006311;28;45328;-82
2022/06/11 06:43:02;;;;;;;;;4.00;4.00;;;;;33.93;31.33;101454.16;5008738;28;46276;-81
2022/06/11 06:45:28;;;;;;;;;4.50;4.50;;;;;34.24;30.44;101447.25;5033785;28;45629;-82
2022/06/11 06:47:54;;;;;;;;;4.00;4.00;;;;;34.49;30.61;101454.59;5016596;28;45471;-81
2022/06/11 06:50:19;;;;;;;;;4.00;4.00;;;;;34.64;30.90;101453.94;5008889;28;45349;-81
2022/06/11 06:52:45;;;;;;;;;3.75;3.75;;;;;35.02;30.34;101457.13;5023051;28;46293;-81
2022/06/11 06:55:11;;;;;;;;;3.50;3.50;;;;;34.98;29.77;101447.50;5035324;28;45348;-83
2022/06/11 06:57:36;;;;;;;;;5.75;5.00;;;;;34.42;29.83;101444.44;5012357;28;45334;-81
2022/06/11 07:00:03;;;;;;;;;5.00;5.00;;;;;33.69;31.07;101463.06;5001191;28;45270;-81
2022/06/11 07:02:29;;;;;;;;;11.50;6.50;;;;;32.95;32.70;101454.25;4999276;28;45461;-81
2022/06/11 07:04:54;;;;;;;;;5.75;4.75;;;;;32.49;32.74;101462.44;5004217;28;45370;-81
2022/06/11 07:07:20;;;;;;;;;4.50;4.00;;;;;31.90;33.76;101464.56;5016100;28;45625;-81
2022/06/11 07:09:51;;;;;;;;;4.75;3.75;;;;;31.37;34.34;101465.97;5016509;28;45668;-80
2022/06/11 07:12:17;;;;;;;;;4.00;4.00;;;;;31.13;35.30;101461.81;5001969;28;45922;-77
2022/06/11 07:14:42;;;;;;;;;4.25;4.25;;;;;30.97;34.99;101470.53;5015688;28;45387;-77
2022/06/11 07:17:10;;;;;;;;;4.25;4.00;;;;;30.80;35.83;101471.25;5015925;28;45358;-77
2022/06/11 07:19:43;;;;;;;;;4.00;3.75;;;;;30.83;35.75;101468.22;5014467;28;45464;-77
2022/06/11 07:22:18;;;;;;;;;3.00;3.00;;;;;30.84;35.32;101469.97;5014343;28;46401;-78
2022/06/11 07:24:43;;;;;;;;;4.25;4.25;;;;;30.56;35.71;101467.03;5011679;28;45418;-76
2022/06/11 07:27:14;;;;;;;;;4.00;4.00;;;;;30.45;36.30;101475.34;4996271;28;45463;-78
2022/06/11 07:29:54;;;;;;;;;3.50;3.50;;;;;30.32;37.45;101466.50;4996479;28;45277;-78
2022/06/11 07:32:22;;;;;;;;;3.50;3.50;;;;;30.53;36.73;101464.56;4997058;28;45454;-79
2022/06/11 07:34:48;;;;;;;;;4.00;3.75;;;;;30.64;35.79;101469.03;5002953;28;45435;-78
2022/06/11 07:37:14;;;;;;;;;3.50;3.50;;;;;30.69;35.48;101468.66;4996495;28;45391;-80
2022/06/11 07:39:40;;;;;;;;;2.50;2.50;;;;;30.71;35.72;101466.63;5011852;28;45355;-79
2022/06/11 07:42:06;;;;;;;;;1.50;1.25;;;;;30.70;35.99;101475.81;5007507;28;45394;-76
2022/06/11 07:44:32;;;;;;;;;3.25;3.00;;;;;30.79;35.46;101475.84;5015405;28;45494;-80
2022/06/11 07:46:57;;;;;;;;;3.50;2.50;;;;;31.28;34.75;101475.00;5009251;28;45661;-80
2022/06/11 07:49:23;;;;;;;;;3.50;3.00;;;;;31.42;34.81;101468.25;5009276;28;45516;-76
2022/06/11 07:51:48;;;;;;;;;4.00;4.00;;;;;31.70;33.94;101463.75;5014288;28;45363;-79
2022/06/11 07:54:14;;;;;;;;;3.50;3.00;;;;;31.55;33.63;101474.28;5014938;28;45434;-77
2022/06/11 07:56:39;;;;;;;;;3.75;3.75;;;;;31.60;34.04;101473.84;5012623;28;45423;-77
2022/06/11 07:59:05;;;;;;;;;3.00;3.00;;;;;31.39;34.17;101476.75;5014963;28;45584;-76
2022/06/11 08:01:31;;;;;;;;;5.00;3.00;;;;;31.21;34.46;101482.91;5014480;28;45535;-77
2022/06/11 08:03:56;;;;;;;;;3.00;3.00;;;;;30.96;35.30;101479.72;5016991;28;54701;-76
2022/06/11 08:06:21;;;;;;;;;5.00;4.00;;;;;30.83;35.00;101473.69;5011984;28;45703;-76
2022/06/11 08:08:49;;;;;;;;;2.75;2.75;;;;;30.67;35.59;101470.63;5015583;28;45418;-76
2022/06/11 08:11:14;;;;;;;;;2.50;2.25;;;;;30.55;35.59;101476.22;5013579;28;45440;-77
2022/06/11 08:13:40;;;;;;;;;2.00;2.00;;;;;30.42;36.20;101478.34;5020059;28;45435;-76
2022/06/11 08:16:06;;;;;;;;;4.00;4.00;;;;;30.32;36.20;101471.94;5011924;28;45344;-77
2022/06/11 08:18:32;;;;;;;;;2.00;2.00;;;;;30.17;36.81;101475.06;5011124;28;45424;-75
2022/06/11 08:20:57;;;;;;;;;5.50;4.00;;;;;30.18;36.68;101465.88;5009500;28;45639;-78
2022/06/11 08:23:23;;;;;;;;;3.00;3.00;;;;;30.30;36.37;101470.22;5011969;28;45415;-76
2022/06/11 08:25:49;;;;;;;;;3.50;3.50;;;;;30.62;35.55;101477.38;5012970;28;45615;-76
2022/06/11 08:28:16;;;;;;;;;6.00;5.00;;;;;30.86;35.63;101469.81;5012571;28;45674;-76
2022/06/11 08:30:43;;;;;;;;;3.50;3.50;;;;;30.65;35.71;101471.63;5010006;28;46238;-77
2022/06/11 08:33:09;;;;;;;;;3.00;3.00;;;;;31.42;34.54;101480.03;5017905;28;45459;-76
2022/06/11 08:35:35;;;;;;;;;5.00;3.50;;;;;31.91;33.57;101471.75;5019010;28;45461;-75
2022/06/11 08:38:02;;;;;;;;;3.25;3.25;;;;;31.44;34.02;101478.00;5012316;28;45486;-75
2022/06/11 08:40:50;;;;;;;;;5.25;4.00;;;;;31.61;34.37;101472.84;5014516;28;45504;-76
2022/06/11 08:43:29;;;;;;;;;5.25;3.75;;;;;31.66;34.71;101468.66;5011822;28;45459;-79
2022/06/11 08:46:03;;;;;;;;;4.00;4.00;;;;;31.10;34.58;101477.63;5023922;28;45470;-79
2022/06/11 08:48:46;;;;;;;;;4.25;3.00;;;;;30.72;35.42;101479.28;5012273;28;45443;-76
2022/06/11 08:51:33;;;;;;;;;1.00;1.00;;;;;30.75;35.66;101468.09;5005882;28;46254;-77
2022/06/11 08:54:04;;;;;;;;;4.00;4.00;;;;;30.73;35.98;101465.50;5015573;28;45526;-79
2022/06/11 08:56:39;;;;;;;;;5.00;5.00;;;;;30.69;35.91;101469.50;5020406;28;45478;-78
2022/06/11 08:59:40;;;;;;;;;4.50;4.50;;;;;30.40;36.49;101459.41;5005454;28;45480;-77
2022/06/11 09:02:08;;;;;;;;;4.50;3.75;;;;;30.43;36.41;101461.84;4974798;28;45761;-78
2022/06/11 09:05:02;;;;;;;;;4.25;3.50;;;;;30.93;35.37;101454.56;4977687;28;45621;-79
2022/06/11 09:07:38;;;;;;;;;2.50;2.50;;;;;31.46;35.16;101456.03;4906386;28;45680;-77
2022/06/11 09:10:43;;;;;;;;;1.75;1.75;;;;;32.32;33.46;101452.34;4907859;28;45556;-78
2022/06/11 09:13:33;;;;;;;;;4.25;3.75;;;;;32.55;32.50;101453.66;4894096;28;46073;-77
2022/06/11 09:16:38;;;;;;;;;3.00;3.00;;;;;32.89;31.97;101439.31;4895506;28;45552;-77
2022/06/11 09:19:03;;;;;;;;;2.75;2.50;;;;;32.73;32.26;101441.88;4885980;28;45563;-77
2022/06/11 09:21:45;;;;;;;;;2.00;2.00;;;;;32.46;32.29;101435.41;4903990;28;45584;-77
2022/06/11 09:24:45;;;;;;;;;2.00;2.00;;;;;32.34;32.75;101451.19;4898315;28;46027;-78
2022/06/11 09:27:17;;;;;;;;;3.00;3.00;;;;;32.56;32.51;101449.88;4857491;28;45396;-78
2022/06/11 09:30:03;;;;;;;;;3.75;3.75;;;;;32.44;32.76;101447.53;4908443;28;45713;-79
2022/06/11 09:32:51;;;;;;;;;4.50;4.50;;;;;32.02;32.90;101452.44;4895713;28;45534;-78
2022/06/11 09:35:30;;;;;;;;;1.00;0.00;;;;;32.36;32.68;101443.69;4904972;28;46784;-79
2022/06/11 09:38:34;;;;;;;;;2.50;2.50;;;;;32.92;31.60;101443.63;4909192;28;45541;-78
2022/06/11 09:41:05;;;;;;;;;3.50;3.00;;;;;33.60;31.26;101453.06;4943630;28;45723;-79
2022/06/11 09:43:50;;;;;;;;;2.00;2.00;;;;;33.82;30.44;101447.06;4945068;28;45648;-77
2022/06/11 09:46:37;;;;;;;;;4.75;2.75;;;;;34.04;29.98;101439.31;5015571;28;46485;-78
2022/06/11 09:49:30;;;;;;;;;0.50;0.50;;;;;33.99;30.35;101452.66;5011991;28;45533;-80
2022/06/11 09:52:15;;;;;;;;;4.00;2.00;;;;;34.21;29.40;101444.84;5005145;28;45435;-78
2022/06/11 09:54:54;;;;;;;;;2.25;2.00;;;;;34.74;30.05;101443.69;5005629;28;45437;-77
2022/06/11 09:57:26;;;;;;;;;3.25;2.00;;;;;34.75;30.13;101439.91;5008537;28;46341;-78
2022/06/11 09:59:58;;;;;;;;;2.75;1.00;;;;;34.38;29.50;101446.69;5028715;28;45519;-77
2022/06/11 10:05:40;;;;;;;;;1.25;1.25;;;;;35.09;27.98;101443.56;5010183;28;45504;-82
2022/06/11 10:08:38;;;;;;;;;2.00;2.00;;;;;35.56;29.17;101442.84;5004465;28;46219;-82
2022/06/11 10:11:10;;;;;;;;;1.50;1.50;;;;;35.98;28.06;101439.00;5014355;28;45620;-82
2022/06/11 10:13:45;;;;;;;;;2.00;2.00;;;;;36.46;26.67;101441.75;5031320;28;45403;-81
2022/06/11 10:16:30;;;;;;;;;2.00;2.00;;;;;36.72;27.60;101437.78;5012521;28;45475;-83
2022/06/11 10:19:07;;;;;;;;;3.00;3.00;;;;;36.35;26.97;101442.13;5017634;28;46091;-82
2022/06/11 10:21:34;;;;;;;;;1.25;1.25;;;;;35.91;27.83;101448.97;5018494;28;45371;-82
2022/06/11 10:24:05;;;;;;;;;1.00;1.00;;;;;35.72;28.28;101450.22;5007323;28;45435;-81
2022/06/11 10:26:37;;;;;;;;;2.00;2.00;;;;;36.07;27.73;101437.06;5024407;28;45503;-82
2022/06/11 10:29:14;;;;;;;;;1.50;1.50;;;;;36.36;26.21;101447.44;5026754;28;46284;-78
2022/06/11 10:32:01;;;;;;;;;2.00;2.00;;;;;36.64;26.33;101439.56;5007110;28;45537;-82
2022/06/11 10:34:29;;;;;;;;;6.25;4.00;;;;;36.75;25.64;101430.03;5009740;28;45495;-83
2022/06/11 10:37:22;;;;;;;;;2.75;2.00;;;;;36.84;25.37;101441.84;5007575;28;45640;-82
2022/06/11 10:40:08;;;;;;;;;3.00;3.00;;;;;37.01;25.94;101438.97;5016038;28;45479;-82
2022/06/11 10:42:42;;;;;;;;;1.00;1.00;;;;;37.14;25.41;101433.69;5013204;28;45419;-82
2022/06/11 10:45:15;;;;;;;;;3.00;2.00;;;;;37.36;25.18;101433.88;5015693;28;45383;-80
2022/06/11 10:47:45;;;;;;;;;2.25;2.25;;;;;37.59;25.27;101425.53;5017142;28;45649;-83
2022/06/11 10:50:11;;;;;;;;;1.00;1.00;;;;;37.83;24.77;101438.22;5021086;28;46997;-81
2022/06/11 10:53:01;;;;;;;;;2.00;1.00;;;;;37.46;24.80;101434.44;5023859;28;45585;-82
2022/06/11 10:55:41;;;;;;;;;1.00;1.00;;;;;36.48;25.50;101439.66;5017174;28;45523;-82
2022/06/11 10:58:18;;;;;;;;;3.75;3.50;;;;;35.80;27.16;101439.22;5020485;28;45372;-82
2022/06/11 11:00:55;;;;;;;;;2.00;2.00;;;;;35.09;27.82;101443.56;5030706;28;46386;-83
2022/06/11 11:03:29;;;;;;;;;1.00;1.00;;;;;34.66;27.99;101443.66;5027014;28;45431;-81
2022/06/11 11:06:03;;;;;;;;;2.00;1.25;;;;;34.08;28.76;101434.38;5028260;28;45468;-82
2022/06/11 11:08:29;;;;;;;;;3.00;3.00;;;;;33.99;29.53;101436.19;5028566;28;45497;-77
2022/06/11 11:10:57;;;;;;;;;5.25;4.75;;;;;34.36;28.37;101437.75;5019154;28;46442;-78
2022/06/11 11:13:34;;;;;;;;;2.00;2.00;;;;;34.75;28.30;101442.63;5022843;28;45531;-78
2022/06/11 11:16:12;;;;;;;;;3.50;3.00;;;;;34.96;27.60;101438.59;5020111;28;45465;-79
2022/06/11 11:19:18;;;;;;;;;2.50;2.50;;;;;34.91;28.75;101430.88;5019159;28;45433;-78
2022/06/11 11:21:57;;;;;;;;;4.25;2.25;;;;;34.49;28.42;101437.28;5017671;28;46335;-78
2022/06/11 11:24:51;;;;;;;;;2.25;2.00;;;;;34.38;27.60;101441.19;5021754;28;45435;-78
2022/06/11 11:27:23;;;;;;;;;3.00;2.00;;;;;34.57;28.48;101440.03;5021362;28;45577;-79
2022/06/11 11:29:56;;;;;;;;;4.25;4.25;;;;;34.82;27.90;101427.25;5033448;28;45406;-79
2022/06/11 11:32:33;;;;;;;;;3.25;3.25;;;;;35.04;27.80;101433.09;5020122;28;46334;-78
2022/06/11 11:35:18;;;;;;;;;2.00;2.00;;;;;34.95;27.37;101420.38;5017234;28;45471;-79
2022/06/11 11:37:46;;;;;;;;;2.00;2.00;;;;;34.46;28.26;101430.22;5013550;28;45465;-78
2022/06/11 11:40:23;;;;;;;;;2.00;2.00;;;;;33.70;28.97;101431.06;5018530;28;45466;-78
2022/06/11 11:42:54;;;;;;;;;2.25;2.25;;;;;33.70;29.23;101425.59;5003637;28;45459;-78
2022/06/11 11:45:25;;;;;;;;;4.75;3.75;;;;;33.94;29.11;101427.63;5016091;28;45342;-77
2022/06/11 11:47:54;;;;;;;;;3.25;2.75;;;;;34.38;28.83;101427.47;5011206;28;45477;-77
2022/06/11 11:50:27;;;;;;;;;2.00;2.00;;;;;34.45;27.95;101414.81;5031692;28;45766;-78
2022/06/11 11:53:01;;;;;;;;;2.25;2.25;;;;;34.60;28.38;101408.66;5031223;28;46171;-78